^^
Saratoga-Weather Station Historical Data
Daily Summary for August 12, 2020 Units:  English    Metric   Both
Daily Weekly Monthly Yearly Custom
  High: Low: Average:
Temperature: 44.8 °F 37.4 °F 39.7 °F
Dew Point: 38.8 °F 33.8 °F 35.8 °F
Humidity: 92% 76% 86%
Wind Speed: 14.1mph 0mph 3.5mph
Wind Gust: 19mph - -
Wind- - West
Pressure: 30.1 in 30 in -
Precipitation: 0.06 in    
Historical Graphs
 
 
Tabular Data for August 12, 2020
Time Temperature Dew Point Pressure Wind Wind Speed Wind Gust Humidity Rainfall Rate (Hourly) solar
00:04 38.3 °F 34 °F 30 in WSW 4.9 mph 12 mph 84% 0 in 0 W/m2
00:10 38.1 °F 33.8 °F 30 in WSW 8.1 mph 8 mph 84% 0 in 0 W/m2
00:15 38.1 °F 34 °F 30 in NNW 2 mph 9 mph 85% 0 in 0 W/m2
00:20 38.1 °F 34 °F 30 in West 0.9 mph 4 mph 85% 0 in 0 W/m2
00:25 38.1 °F 34 °F 30 in West 2.9 mph 12 mph 85% 0 in 0 W/m2
00:30 38.3 °F 34.2 °F 30 in West 2 mph 10 mph 85% 0 in 0 W/m2
00:35 38.5 °F 34.3 °F 30 in West 8.1 mph 12 mph 85% 0 in 0 W/m2
00:40 38.5 °F 34.3 °F 30 in WNW 0.9 mph 4 mph 85% 0 in 0 W/m2
00:45 38.5 °F 34.3 °F 30 in SSW 11 mph 11 mph 85% 0 in 0 W/m2
00:50 38.7 °F 34.5 °F 30 in WNW 2 mph 10 mph 85% 0 in 0 W/m2
00:55 38.7 °F 34.5 °F 30 in West 4 mph 8 mph 85% 0 in 0 W/m2
01:00 38.7 °F 34.5 °F 30 in WNW 2 mph 8 mph 85% 0 in 0 W/m2
01:05 38.7 °F 34.5 °F 30 in West 0.9 mph 3 mph 85% 0 in 0 W/m2
01:10 38.7 °F 34.9 °F 30 in East 0.9 mph 7 mph 86% 0 in 0 W/m2
01:15 38.7 °F 34.9 °F 30 in WSW 4 mph 10 mph 86% 0 in 0 W/m2
01:20 38.5 °F 34.7 °F 30 in WNW 2 mph 14 mph 86% 0 in 0 W/m2
01:25 38.5 °F 34.7 °F 30 in West 2 mph 8 mph 86% 0 in 0 W/m2
01:30 38.5 °F 34.7 °F 30 in West 6.9 mph 12 mph 86% 0 in 0 W/m2
01:35 38.3 °F 34.5 °F 30 in WSW 4.9 mph 10 mph 86% 0 in 0 W/m2
01:40 38.3 °F 34.5 °F 30 in WNW 2.9 mph 12 mph 86% 0 in 0 W/m2
01:45 38.1 °F 34.3 °F 30 in WNW 6.9 mph 7 mph 86% 0 in 0 W/m2
01:50 38.1 °F 34.3 °F 30 in WSW 4 mph 12 mph 86% 0 in 0 W/m2
01:55 38.1 °F 34.5 °F 30 in WSW 6.9 mph 11 mph 87% 0 in 0 W/m2
02:00 38.1 °F 34.5 °F 30 in West 2 mph 5 mph 87% 0 in 0 W/m2
02:05 38.1 °F 34.5 °F 30 in WNW 4 mph 11 mph 87% 0 in 0 W/m2
02:10 38.1 °F 34.5 °F 30 in WSW 2.9 mph 8 mph 87% 0 in 0 W/m2
02:15 38.1 °F 34.5 °F 30 in NW 2.9 mph 10 mph 87% 0 in 0 W/m2
02:21 38.1 °F 34.5 °F 30 in WSW 2 mph 8 mph 87% 0 in 0 W/m2
02:26 38.1 °F 34.3 °F 30 in WNW 6.9 mph 10 mph 86% 0 in 0 W/m2
02:31 38.1 °F 34.5 °F 30 in WNW 2 mph 7 mph 87% 0 in 0 W/m2
02:36 38.1 °F 34.3 °F 30 in WSW 6 mph 8 mph 86% 0 in 0 W/m2
02:41 37.9 °F 34.2 °F 30 in WNW 8.1 mph 8 mph 86% 0 in 0 W/m2
02:46 37.9 °F 34.2 °F 30 in WSW 6.9 mph 7 mph 86% 0 in 0 W/m2
02:51 37.8 °F 34 °F 30 in WNW 2.9 mph 10 mph 86% 0 in 0 W/m2
02:56 37.8 °F 34 °F 30 in West 2 mph 8 mph 86% 0 in 0 W/m2
03:01 37.8 °F 34 °F 30 in NNW 4.9 mph 5 mph 86% 0 in 0 W/m2
03:06 37.8 °F 34 °F 30 in NW 4 mph 9 mph 86% 0 in 0 W/m2
03:11 37.8 °F 34.2 °F 30 in West 6 mph 9 mph 87% 0 in 0 W/m2
03:16 37.8 °F 34.2 °F 30 in WNW 6.9 mph 10 mph 87% 0 in 0 W/m2
03:21 37.6 °F 33.8 °F 30 in WNW 6.9 mph 9 mph 86% 0 in 0 W/m2
03:26 37.6 °F 33.8 °F 30 in Calm   9 mph 86% 0 in 0 W/m2
03:31 37.6 °F 34 °F 30 in West 2 mph 6 mph 87% 0 in 0 W/m2
03:36 37.6 °F 34 °F 30 in NNW 2.9 mph 7 mph 87% 0 in 0 W/m2
03:41 37.6 °F 34 °F 30 in NW 2.9 mph 9 mph 87% 0 in 0 W/m2
03:47 37.6 °F 34 °F 30 in West 6 mph 9 mph 87% 0 in 0 W/m2
03:52 37.6 °F 34 °F 30 in WNW 6.9 mph 8 mph 87% 0 in 0 W/m2
03:57 37.6 °F 34 °F 30 in WNW 8.1 mph 9 mph 87% 0 in 0 W/m2
04:02 37.6 °F 34 °F 30 in WNW 4.9 mph 6 mph 87% 0 in 0 W/m2
04:07 37.4 °F 33.8 °F 30 in West 11 mph 14 mph 87% 0 in 0 W/m2
04:12 37.6 °F 34 °F 30 in NNE 2 mph 6 mph 87% 0 in 0 W/m2
04:17 37.6 °F 34 °F 30 in West 4 mph 11 mph 87% 0 in 0 W/m2
04:22 37.6 °F 34 °F 30 in WNW 6.9 mph 13 mph 87% 0 in 0 W/m2
04:27 37.6 °F 34 °F 30 in WNW 6.9 mph 10 mph 87% 0 in 0 W/m2
04:32 37.8 °F 34.2 °F 30 in NNW 6 mph 9 mph 87% 0 in 0 W/m2
04:37 37.6 °F 34 °F 30 in NW 4 mph 4 mph 87% 0 in 0 W/m2
04:42 37.6 °F 34 °F 30 in NW 4 mph 8 mph 87% 0 in 0 W/m2
04:47 37.6 °F 34 °F 30 in SW 6 mph 12 mph 87% 0 in 0 W/m2
04:52 37.6 °F 34 °F 30 in NW 2.9 mph 7 mph 87% 0 in 0 W/m2
04:57 37.6 °F 34 °F 30 in NNW 4.9 mph 12 mph 87% 0 in 0 W/m2
05:02 37.8 °F 34.2 °F 30 in West 6 mph 10 mph 87% 0 in 0 W/m2
05:07 37.8 °F 34.2 °F 30 in WSW 2.9 mph 9 mph 87% 0 in 0 W/m2
05:12 37.8 °F 34.2 °F 30 in West 2.9 mph 12 mph 87% 0 in 0 W/m2
05:17 37.8 °F 34.2 °F 30 in WNW 4.9 mph 16 mph 87% 0 in 0 W/m2
05:22 37.8 °F 34.2 °F 30 in SW 4.9 mph 9 mph 87% 0 in 0 W/m2
05:27 37.8 °F 34.2 °F 30 in WNW 8.1 mph 16 mph 87% 0 in 0 W/m2
05:32 37.9 °F 34.3 °F 30 in West 6 mph 9 mph 87% 0 in 0 W/m2
05:37 37.9 °F 34.3 °F 30 in West 4 mph 12 mph 87% 0 in 0 W/m2
05:43 37.9 °F 34.3 °F 30 in NW 4.9 mph 9 mph 87% 0 in 0 W/m2
05:48 37.9 °F 34.3 °F 30 in NW 4 mph 6 mph 87% 0 in 0 W/m2
05:53 37.9 °F 34.3 °F 30 in WNW 6.9 mph 9 mph 87% 0 in 0 W/m2
05:58 37.9 °F 34.3 °F 30 in WNW 6.9 mph 8 mph 87% 0 in 0 W/m2
06:03 37.9 °F 34.3 °F 30 in North 4 mph 10 mph 87% 0 in 0 W/m2
06:08 37.9 °F 34.3 °F 30 in West 2 mph 11 mph 87% 0 in 0 W/m2
06:13 37.9 °F 34.3 °F 30 in West 2 mph 8 mph 87% 0 in 0 W/m2
06:18 37.9 °F 34.3 °F 30 in WNW 4 mph 10 mph 87% 0 in 0 W/m2
06:23 37.9 °F 34.3 °F 30 in SSW 2 mph 8 mph 87% 0 in 0 W/m2
06:28 37.8 °F 34.2 °F 30 in NW 4 mph 7 mph 87% 0 in 0 W/m2
06:34 37.9 °F 34.3 °F 30 in SW 2 mph 6 mph 87% 0 in 0 W/m2
06:39 37.9 °F 34.3 °F 30 in WSW 11 mph 12 mph 87% 0 in 0 W/m2
06:44 37.9 °F 34.3 °F 30 in West 8.1 mph 12 mph 87% 0 in 0 W/m2
06:49 37.9 °F 34.3 °F 30 in West 2.9 mph 13 mph 87% 0 in 0 W/m2
06:54 38.1 °F 34.5 °F 30 in West 2.9 mph 8 mph 87% 0 in 0 W/m2
06:59 38.1 °F 34.5 °F 30 in NW 4.9 mph 12 mph 87% 0 in 0 W/m2
07:04 38.1 °F 34.5 °F 30 in NNW 8.1 mph 9 mph 87% 0 in 0 W/m2
07:09 38.3 °F 34.7 °F 30 in NNE 0.9 mph 11 mph 87% 0 in 0 W/m2
07:14 38.3 °F 34.7 °F 30 in West 6 mph 9 mph 87% 0 in 0 W/m2
07:19 38.5 °F 34.9 °F 30 in NW 2.9 mph 7 mph 87% 0 in 0 W/m2
07:24 38.3 °F 34.7 °F 30 in West 2.9 mph 9 mph 87% 0 in 0 W/m2
07:29 38.3 °F 34.7 °F 30 in WNW 2.9 mph 10 mph 87% 0 in 0 W/m2
07:34 38.3 °F 34.7 °F 30 in Calm   5 mph 87% 0 in 0 W/m2
07:39 38.3 °F 35.1 °F 30 in NE 2.9 mph 3 mph 88% 0 in 0 W/m2
07:44 38.1 °F 34.9 °F 30 in WNW 2.9 mph 3 mph 88% 0 in 0 W/m2
07:49 38.1 °F 34.9 °F 30 in West 8.1 mph 8 mph 88% 0 in 0 W/m2
07:54 38.1 °F 34.9 °F 30 in West 4 mph 10 mph 88% 0 in 0 W/m2
07:59 38.1 °F 34.9 °F 30 in WNW 8.1 mph 8 mph 88% 0 in 5 W/m2
08:04 38.1 °F 34.9 °F 30 in SW 2.9 mph 12 mph 88% 0 in 7 W/m2
08:09 38.1 °F 34.9 °F 30.1 in WNW 2.9 mph 8 mph 88% 0 in 9 W/m2
08:14 38.3 °F 35.1 °F 30.1 in NNW 4.9 mph 9 mph 88% 0 in 11 W/m2
08:19 38.3 °F 34.7 °F 30 in WNW 2.9 mph 7 mph 87% 0 in 21 W/m2
08:24 38.5 °F 35.2 °F 30.1 in North 4.9 mph 5 mph 88% 0 in 25 W/m2
08:29 38.5 °F 34.9 °F 30.1 in NW 2.9 mph 6 mph 87% 0 in 40 W/m2
08:34 38.7 °F 35.4 °F 30.1 in North 13 mph 13 mph 88% 0 in 47 W/m2
08:39 38.7 °F 35.4 °F 30.1 in NW 2.9 mph 9 mph 88% 0 in 58 W/m2
08:44 38.7 °F 35.4 °F 30.1 in West 4 mph 19 mph 88% 0 in 60 W/m2
08:49 38.8 °F 35.6 °F 30.1 in NW 2.9 mph 8 mph 88% 0 in 51 W/m2
08:54 38.8 °F 35.6 °F 30.1 in West 2.9 mph 16 mph 88% 0 in 47 W/m2
08:59 38.8 °F 35.6 °F 30.1 in WSW 2.9 mph 3 mph 88% 0 in 46 W/m2
09:04 38.8 °F 35.6 °F 30.1 in West 2 mph 13 mph 88% 0 in 32 W/m2
09:09 38.8 °F 35.6 °F 30.1 in WNW 8.9 mph 9 mph 88% 0 in 32 W/m2
09:14 39 °F 35.8 °F 30.1 in NW 4.9 mph 7 mph 88% 0 in 54 W/m2
09:19 39 °F 35.8 °F 30.1 in Calm   5 mph 88% 0 in 46 W/m2
09:24 39 °F 35.8 °F 30.1 in NNW 4 mph 15 mph 88% 0 in 35 W/m2
09:29 39 °F 35.8 °F 30.1 in West 4 mph 8 mph 88% 0 in 58 W/m2
09:35 39 °F 35.8 °F 30.1 in North 2.9 mph 10 mph 88% 0 in 70 W/m2
09:40 39.2 °F 36 °F 30.1 in West 2 mph 5 mph 88% 0 in 39 W/m2
09:45 39.2 °F 36 °F 30.1 in NW 2 mph 8 mph 88% 0 in 53 W/m2
09:50 39.2 °F 36 °F 30.1 in WNW 2 mph 7 mph 88% 0 in 74 W/m2
09:55 39.4 °F 36.1 °F 30.1 in WNW 4.9 mph 11 mph 88% 0 in 60 W/m2
10:00 39.4 °F 36.1 °F 30.1 in WNW 0.9 mph 6 mph 88% 0 in 67 W/m2
10:05 39.4 °F 36.1 °F 30.1 in NW 6 mph 12 mph 88% 0 in 62 W/m2
10:10 39.4 °F 36.5 °F 30.1 in WNW 11 mph 11 mph 89% 0.01 in 54 W/m2
10:15 39.2 °F 36.3 °F 30.1 in WNW 6.9 mph 12 mph 89% 0.01 in 60 W/m2
10:20 39 °F 36.1 °F 30.1 in WNW 2 mph 7 mph 89% 0.01 in 54 W/m2
10:25 39 °F 36.1 °F 30.1 in SW 0.9 mph 13 mph 89% 0.02 in 44 W/m2
10:30 39 °F 36.3 °F 30.1 in West 0.9 mph 6 mph 90% 0.02 in 49 W/m2
10:35 39 °F 36.3 °F 30.1 in NNW 2 mph 13 mph 90% 0.02 in 30 W/m2
10:40 38.8 °F 36.1 °F 30.1 in WNW 0.9 mph 9 mph 90% 0.02 in 19 W/m2
10:45 38.8 °F 36.1 °F 30.1 in WNW 8.1 mph 10 mph 90% 0.04 in 51 W/m2
10:50 38.7 °F 36.3 °F 30.1 in NW 4 mph 4 mph 91% 0.04 in 70 W/m2
10:55 38.7 °F 36.3 °F 30.1 in WNW 2 mph 5 mph 91% 0.04 in 100 W/m2
11:00 38.7 °F 36.3 °F 30.1 in West 4 mph 5 mph 91% 0.05 in 137 W/m2
11:05 38.8 °F 36.7 °F 30.1 in NW 0.9 mph 5 mph 92% 0.05 in 76 W/m2
11:10 38.8 °F 36.7 °F 30.1 in NW 2 mph 11 mph 92% 0.04 in 90 W/m2
11:15 38.8 °F 36.7 °F 30.1 in WNW 6 mph 6 mph 92% 0.04 in 178 W/m2
11:20 39 °F 36.9 °F 30.1 in NNW 4 mph 9 mph 92% 0.05 in 125 W/m2
11:25 39.2 °F 37 °F 30.1 in SSW 2 mph 10 mph 92% 0.04 in 97 W/m2
11:30 39.2 °F 37 °F 30.1 in West 6.9 mph 8 mph 92% 0.04 in 63 W/m2
11:35 39.4 °F 37.2 °F 30.1 in West 8.9 mph 16 mph 92% 0.03 in 79 W/m2
11:40 39.4 °F 37.2 °F 30.1 in WNW 2 mph 7 mph 92% 0.03 in 63 W/m2
11:45 39.4 °F 37.2 °F 30.1 in WNW 8.9 mph 10 mph 92% 0.02 in 65 W/m2
11:50 39.6 °F 37.4 °F 30.1 in WNW 4.9 mph 10 mph 92% 0.02 in 114 W/m2
11:55 39.6 °F 37.4 °F 30.1 in NW 2.9 mph 5 mph 92% 0.02 in 104 W/m2
12:00 39.7 °F 37.6 °F 30.1 in WNW 2.9 mph 6 mph 92% 0.01 in 171 W/m2
12:05 39.9 °F 37.8 °F 30.1 in NW 4 mph 4 mph 92% 0.01 in 156 W/m2
12:10 40.1 °F 37.8 °F 30.1 in WNW 0.9 mph 4 mph 91% 0.01 in 81 W/m2
12:15 40.3 °F 37.9 °F 30.1 in WNW 4.9 mph 7 mph 91% 0 in 40 W/m2
12:20 40.3 °F 37.9 °F 30.1 in SW 2.9 mph 5 mph 91% 0 in 74 W/m2
12:26 40.3 °F 37.9 °F 30.1 in West 4 mph 5 mph 91% 0 in 53 W/m2
12:31 40.3 °F 37.9 °F 30.1 in SW 2 mph 8 mph 91% 0 in 116 W/m2
12:36 40.3 °F 37.9 °F 30.1 in NNW 2 mph 2 mph 91% 0 in 76 W/m2
12:41 40.5 °F 37.8 °F 30.1 in NW 4 mph 7 mph 90% 0 in 84 W/m2
12:46 40.5 °F 37.8 °F 30.1 in West 4 mph 7 mph 90% 0 in 67 W/m2
12:51 40.5 °F 37.8 °F 30.1 in NNW 2.9 mph 6 mph 90% 0 in 56 W/m2
12:56 40.5 °F 37.4 °F 30.1 in WSW 4.9 mph 8 mph 89% 0 in 62 W/m2
13:01 40.6 °F 37.6 °F 30.1 in NW 4 mph 8 mph 89% 0 in 107 W/m2
13:06 40.8 °F 38.1 °F 30.1 in NNW 2 mph 7 mph 90% 0 in 287 W/m2
13:11 41.2 °F 38.1 °F 30.1 in NW 2.9 mph 5 mph 89% 0 in 171 W/m2
13:16 41.5 °F 38.3 °F 30.1 in West 8.9 mph 9 mph 88% 0 in 128 W/m2
13:21 41.7 °F 38.1 °F 30.1 in WSW 11 mph 11 mph 87% 0 in 167 W/m2
13:26 41.7 °F 37.8 °F 30.1 in NW 4 mph 13 mph 86% 0 in 185 W/m2
13:31 42.1 °F 37.9 °F 30.1 in NW 8.9 mph 9 mph 85% 0 in 197 W/m2
13:36 42.3 °F 37.8 °F 30.1 in West 6.9 mph 16 mph 84% 0 in 232 W/m2
13:41 42.4 °F 37.9 °F 30.1 in West 2.9 mph 13 mph 84% 0 in 197 W/m2
13:46 42.4 °F 37.9 °F 30.1 in WNW 8.1 mph 8 mph 84% 0 in 167 W/m2
13:51 42.6 °F 37.8 °F 30.1 in North 2.9 mph 4 mph 83% 0 in 148 W/m2
13:56 42.6 °F 37.8 °F 30.1 in WNW 6.9 mph 12 mph 83% 0 in 77 W/m2
14:01 42.3 °F 37.8 °F 30.1 in SW 6 mph 7 mph 84% 0 in 58 W/m2
14:06 41.7 °F 37.6 °F 30.1 in NW 4.9 mph 10 mph 85% 0 in 54 W/m2
14:11 41.5 °F 37.6 °F 30.1 in SE 0.9 mph 7 mph 86% 0 in 54 W/m2
14:16 41.4 °F 37.6 °F 30.1 in NNE 2.9 mph 9 mph 86% 0 in 97 W/m2
14:21 41.4 °F 37.8 °F 30.1 in WNW 0.9 mph 3 mph 87% 0 in 113 W/m2
14:26 41.5 °F 37.9 °F 30.1 in WNW 8.9 mph 10 mph 87% 0 in 123 W/m2
14:31 41.9 °F 37.9 °F 30.1 in NW 2 mph 9 mph 86% 0 in 155 W/m2
14:36 42.3 °F 38.3 °F 30.1 in SSW 0.9 mph 5 mph 86% 0 in 158 W/m2
14:41 42.4 °F 38.3 °F 30.1 in NNE 4 mph 4 mph 85% 0 in 199 W/m2
14:46 43 °F 38.8 °F 30.1 in NW 2.9 mph 8 mph 85% 0 in 134 W/m2
14:51 43.3 °F 38.8 °F 30.1 in WNW 4.9 mph 8 mph 84% 0 in 113 W/m2
14:56 43.5 °F 38.5 °F 30.1 in West 2.9 mph 15 mph 82% 0 in 109 W/m2
15:01 43.7 °F 38.3 °F 30.1 in WNW 14.1 mph 15 mph 81% 0 in 183 W/m2
15:06 44.1 °F 38.7 °F 30.1 in NW 2 mph 4 mph 81% 0 in 188 W/m2
15:11 44.2 °F 38.8 °F 30.1 in West 8.1 mph 14 mph 81% 0 in 127 W/m2
15:17 44.2 °F 38.5 °F 30.1 in West 6 mph 8 mph 80% 0 in 171 W/m2
15:22 44.2 °F 38.1 °F 30.1 in WNW 0.9 mph 2 mph 79% 0 in 118 W/m2
15:27 44.2 °F 38.1 °F 30.1 in West 2 mph 7 mph 79% 0 in 139 W/m2
15:32 44.2 °F 38.5 °F 30.1 in NW 2.9 mph 6 mph 80% 0 in 70 W/m2
15:37 44.2 °F 38.1 °F 30.1 in WSW 4 mph 6 mph 79% 0 in 60 W/m2
15:42 44.2 °F 38.1 °F 30.1 in NW 4 mph 12 mph 79% 0 in 70 W/m2
15:47 44.2 °F 38.5 °F 30.1 in West 8.9 mph 14 mph 80% 0 in 114 W/m2
15:52 44.1 °F 38.7 °F 30.1 in WSW 4.9 mph 11 mph 81% 0 in 123 W/m2
15:57 44.2 °F 38.8 °F 30.1 in WNW 8.1 mph 12 mph 81% 0 in 114 W/m2
16:02 44.4 °F 38.7 °F 30.1 in West 2 mph 9 mph 80% 0 in 70 W/m2
16:07 44.8 °F 38.7 °F 30.1 in NNW 4 mph 11 mph 79% 0 in 44 W/m2
16:12 44.8 °F 37.9 °F 30.1 in WSW 12.1 mph 18 mph 77% 0 in 65 W/m2
16:17 44.8 °F 37.8 °F 30.1 in West 8.1 mph 9 mph 76% 0 in 44 W/m2
16:22 44.8 °F 37.8 °F 30.1 in West 2.9 mph 9 mph 76% 0 in 76 W/m2
16:27 44.8 °F 37.9 °F 30.1 in SW 4 mph 8 mph 77% 0 in 98 W/m2
16:32 44.8 °F 37.9 °F 30.1 in West 6.9 mph 9 mph 77% 0 in 86 W/m2
16:37 44.4 °F 37.6 °F 30.1 in NNE 4.9 mph 7 mph 77% 0 in 42 W/m2
16:42 44.1 °F 37.6 °F 30.1 in WSW 4 mph 7 mph 78% 0 in 30 W/m2
16:47 44.1 °F 37.6 °F 30.1 in West 4 mph 4 mph 78% 0 in 32 W/m2
16:52 44.2 °F 37.8 °F 30.1 in WNW 6.9 mph 9 mph 78% 0 in 46 W/m2
16:57 44.1 °F 37.4 °F 30.1 in West 6.9 mph 15 mph 77% 0 in 67 W/m2
17:02 43.9 °F 37.2 °F 30.1 in WSW 2.9 mph 10 mph 77% 0 in 19 W/m2
17:07 43.5 °F 37 °F 30.1 in WNW 2.9 mph 15 mph 78% 0 in 18 W/m2
17:12 43.2 °F 36.7 °F 30.1 in WNW 2 mph 10 mph 78% 0 in 16 W/m2
17:17 43 °F 36.9 °F 30.1 in WNW 2.9 mph 13 mph 79% 0 in 14 W/m2
17:22 42.6 °F 36.9 °F 30.1 in NW 6 mph 6 mph 80% 0 in 12 W/m2
17:27 42.4 °F 36.7 °F 30.1 in WNW 2.9 mph 10 mph 80% 0 in 11 W/m2
17:32 42.4 °F 37 °F 30.1 in West 4 mph 7 mph 81% 0 in 9 W/m2
17:37 42.3 °F 36.9 °F 30.1 in Calm   4 mph 81% 0 in 7 W/m2
17:42 42.1 °F 37 °F 30.1 in Calm   5 mph 82% 0 in 5 W/m2
17:47 42.1 °F 37 °F 30.1 in NW 0.9 mph 2 mph 82% 0 in 0 W/m2
17:52 41.9 °F 37 °F 30.1 in WNW 2 mph 3 mph 83% 0 in 0 W/m2
17:57 41.7 °F 36.9 °F 30.1 in WSW 2 mph 4 mph 83% 0 in 0 W/m2
18:02 41.7 °F 36.9 °F 30.1 in WSW 2 mph 3 mph 83% 0 in 0 W/m2
18:07 41.7 °F 36.9 °F 30.1 in West 2.9 mph 6 mph 83% 0 in 0 W/m2
18:12 41.9 °F 36.9 °F 30.1 in WNW 2.9 mph 6 mph 82% 0 in 0 W/m2
18:18 41.9 °F 36.9 °F 30.1 in WNW 0.9 mph 3 mph 82% 0 in 0 W/m2
18:23 41.9 °F 36.9 °F 30.1 in West 2 mph 5 mph 82% 0 in 0 W/m2
18:28 41.7 °F 36.7 °F 30.1 in WNW 2.9 mph 4 mph 82% 0 in 0 W/m2
18:33 41.7 °F 36.7 °F 30.1 in WNW 2 mph 5 mph 82% 0 in 0 W/m2
18:38 41.5 °F 36.5 °F 30.1 in WNW 2 mph 4 mph 82% 0 in 0 W/m2
18:43 41.5 °F 36.5 °F 30.1 in NW 2.9 mph 8 mph 82% 0 in 0 W/m2
18:48 41.5 °F 36.5 °F 30.1 in WNW 0.9 mph 3 mph 82% 0 in 0 W/m2
18:53 41.4 °F 36.3 °F 30.1 in WNW 4 mph 8 mph 82% 0 in 0 W/m2
18:58 41.4 °F 36.3 °F 30.1 in Calm   2 mph 82% 0 in 0 W/m2
19:03 41.2 °F 36.1 °F 30.1 in WNW 2.9 mph 3 mph 82% 0 in 0 W/m2
19:08 40.8 °F 35.8 °F 30.1 in Calm   4 mph 82% 0 in 0 W/m2
19:13 40.6 °F 36 °F 30.1 in West 2.9 mph 3 mph 83% 0 in 0 W/m2
19:18 40.6 °F 36 °F 30.1 in WSW 0.9 mph 4 mph 83% 0 in 0 W/m2
19:23 40.6 °F 36 °F 30.1 in West 2 mph 2 mph 83% 0 in 0 W/m2
19:28 40.6 °F 36.1 °F 30.1 in WNW 0.9 mph 2 mph 84% 0 in 0 W/m2
19:33 40.5 °F 35.8 °F 30.1 in WNW 0.9 mph 2 mph 83% 0 in 0 W/m2
19:38 40.3 °F 35.8 °F 30.1 in WNW 0.9 mph 3 mph 84% 0 in 0 W/m2
19:43 40.1 °F 35.6 °F 30.1 in West 2 mph 4 mph 84% 0 in 0 W/m2
19:48 39.9 °F 35.4 °F 30.1 in NW 2 mph 4 mph 84% 0 in 0 W/m2
19:53 39.9 °F 35.4 °F 30.1 in Calm   2 mph 84% 0 in 0 W/m2
19:58 39.9 °F 35.4 °F 30.1 in West 2.9 mph 3 mph 84% 0 in 0 W/m2
20:03 39.9 °F 35.4 °F 30.1 in WSW 4 mph 5 mph 84% 0 in 0 W/m2
20:08 39.7 °F 35.2 °F 30.1 in WNW 0.9 mph 3 mph 84% 0 in 0 W/m2
20:13 39.7 °F 35.2 °F 30.1 in West 0.9 mph 1 mph 84% 0 in 0 W/m2
20:18 39.6 °F 35.1 °F 30.1 in WNW 2.9 mph 4 mph 84% 0 in 0 W/m2
20:23 39.4 °F 34.9 °F 30.1 in Calm   2 mph 84% 0 in 0 W/m2
20:28 39 °F 34.5 °F 30.1 in SW 0.9 mph 4 mph 84% 0 in 0 W/m2
20:33 39 °F 34.9 °F 30.1 in SW 0.9 mph 2 mph 85% 0 in 0 W/m2
20:38 39 °F 34.9 °F 30.1 in WSW 2 mph 3 mph 85% 0 in 0 W/m2
20:43 38.8 °F 34.7 °F 30.1 in Calm   1 mph 85% 0 in 0 W/m2
20:48 38.7 °F 34.9 °F 30.1 in Calm     86% 0 in 0 W/m2
20:53 38.5 °F 34.7 °F 30.1 in WSW 0.9 mph 2 mph 86% 0 in 0 W/m2
20:58 38.1 °F 34.3 °F 30.1 in WSW 0.9 mph 1 mph 86% 0 in 0 W/m2
21:03 37.9 °F 34.3 °F 30.1 in ESE 0.9 mph 3 mph 87% 0 in 0 W/m2
21:08 37.8 °F 34.2 °F 30.1 in ESE 2 mph 2 mph 87% 0 in 0 W/m2
21:13 37.6 °F 34.3 °F 30.1 in SW 0.9 mph 3 mph 88% 0 in 0 W/m2
21:18 37.6 °F 34.3 °F 30.1 in SSW 0.9 mph 2 mph 88% 0 in 0 W/m2
21:23 37.6 °F 34.7 °F 30.1 in Calm   3 mph 89% 0 in 0 W/m2
21:29 37.9 °F 35.1 °F 30.1 in SW 0.9 mph 2 mph 89% 0 in 0 W/m2
21:34 38.1 °F 35.2 °F 30.1 in Calm   2 mph 89% 0 in 0 W/m2
21:39 38.3 °F 35.4 °F 30.1 in Calm   2 mph 89% 0 in 0 W/m2
21:44 38.5 °F 35.6 °F 30.1 in Calm   2 mph 89% 0 in 0 W/m2
21:49 38.5 °F 35.6 °F 30.1 in South 0.9 mph 1 mph 89% 0 in 0 W/m2
21:54 38.5 °F 35.6 °F 30.1 in WNW 0.9 mph 1 mph 89% 0 in 0 W/m2
21:59 38.5 °F 35.6 °F 30.1 in WSW 0.9 mph 4 mph 89% 0 in 0 W/m2
22:04 38.7 °F 35.8 °F 30.1 in West 2 mph 2 mph 89% 0 in 0 W/m2
22:09 38.7 °F 35.8 °F 30.1 in WSW 2 mph 4 mph 89% 0 in 0 W/m2
22:14 38.8 °F 36 °F 30.1 in West 4 mph 6 mph 89% 0 in 0 W/m2
22:20 39 °F 36.1 °F 30.1 in Calm   1 mph 89% 0 in 0 W/m2
22:25 39.2 °F 36.3 °F 30.1 in WSW 0.9 mph 4 mph 89% 0 in 0 W/m2
22:30 39.2 °F 36 °F 30.1 in West 2.9 mph 3 mph 88% 0 in 0 W/m2
22:35 39.4 °F 36.1 °F 30.1 in WSW 0.9 mph 1 mph 88% 0 in 0 W/m2
22:40 39.4 °F 36.1 °F 30.1 in Calm   1 mph 88% 0 in 0 W/m2
22:45 39.4 °F 36.1 °F 30.1 in Calm   2 mph 88% 0 in 0 W/m2
22:50 39.4 °F 36.1 °F 30.1 in Calm   2 mph 88% 0 in 0 W/m2
22:55 39.4 °F 36.1 °F 30.1 in NW 0.9 mph 3 mph 88% 0 in 0 W/m2
23:00 39.4 °F 36.1 °F 30.1 in WNW 2.9 mph 3 mph 88% 0 in 0 W/m2
23:05 39.4 °F 36.1 °F 30.1 in WSW 2 mph 4 mph 88% 0 in 0 W/m2
23:10 39.6 °F 36.3 °F 30.1 in SW 2 mph 3 mph 88% 0 in 0 W/m2
23:15 39.6 °F 36.3 °F 30.1 in WSW 0.9 mph 6 mph 88% 0 in 0 W/m2
23:20 39.7 °F 36.5 °F 30.1 in WSW 0.9 mph 4 mph 88% 0 in 0 W/m2
23:25 39.7 °F 36.5 °F 30.1 in WSW 2 mph 4 mph 88% 0 in 0 W/m2
23:30 39.7 °F 36.5 °F 30.1 in NW 0.9 mph 2 mph 88% 0 in 0 W/m2
23:35 39.7 °F 36.5 °F 30.1 in Calm   3 mph 88% 0 in 0 W/m2
23:40 39.7 °F 36.5 °F 30.1 in North 0.9 mph 2 mph 88% 0 in 0 W/m2
23:45 39.7 °F 36.5 °F 30.1 in NW 0.9 mph 3 mph 88% 0 in 0 W/m2
23:50 39.7 °F 36.5 °F 30.1 in East 0.9 mph 2 mph 88% 0 in 0 W/m2
23:55 39.6 °F 36.3 °F 30.1 in West 2 mph 3 mph 88% 0 in 0 W/m2
Juneau County Weather
Compliments of Weather Underground - 4 mb